N108E KMKE-KPDK
Flight info
| Callsign | N108E |
|---|---|
| Flight time | N/A |
| Altitude | 39000 |
| Route | UECKR6 SAMPL WUDYA BUKHD3 |
| Aircraft | C25B/M-SDE2E3FGHRWXY/LB1 |
Departure
| Time | 2026-04-26 22:40 |
|---|---|
| Airport | General Mitchell International Airport (KMKE) |
Arrival
| Time | N/A |
|---|---|
| Airport | DeKalb Peachtree Airport (KPDK) |
| Time | Latitude | Longitude | Altitude | Speed | Heading |
|---|---|---|---|---|---|
| 2026-04-26 22:25 | 42.95818 | -87.89826 | 683 ft | 0 kts | 358° |
| 2026-04-26 22:31 | 42.95827 | -87.89813 | 681 ft | 6 kts | 89° |
| 2026-04-26 22:31 | 42.95811 | -87.89736 | 683 ft | 10 kts | 114° |
| 2026-04-26 22:31 | 42.95754 | -87.89688 | 683 ft | 7 kts | 172° |
| 2026-04-26 22:31 | 42.95743 | -87.89749 | 683 ft | 12 kts | 269° |
| 2026-04-26 22:32 | 42.95742 | -87.89918 | 683 ft | 21 kts | 269° |
| 2026-04-26 22:32 | 42.95741 | -87.90150 | 683 ft | 25 kts | 264° |
| 2026-04-26 22:32 | 42.95630 | -87.90205 | 683 ft | 24 kts | 178° |
| 2026-04-26 22:32 | 42.95447 | -87.90204 | 683 ft | 28 kts | 183° |
| 2026-04-26 22:33 | 42.95287 | -87.90173 | 683 ft | 19 kts | 135° |
| 2026-04-26 22:33 | 42.95121 | -87.89917 | 683 ft | 17 kts | 132° |
| 2026-04-26 22:33 | 42.95031 | -87.89813 | 683 ft | 17 kts | 153° |
| 2026-04-26 22:34 | 42.94930 | -87.89710 | 680 ft | 19 kts | 159° |
| 2026-04-26 22:34 | 42.94798 | -87.89713 | 683 ft | 17 kts | 179° |
| 2026-04-26 22:34 | 42.94725 | -87.89630 | 683 ft | 14 kts | 179° |
| 2026-04-26 22:34 | 42.94621 | -87.89646 | 683 ft | 16 kts | 186° |
| 2026-04-26 22:35 | 42.94497 | -87.89665 | 683 ft | 22 kts | 188° |
| 2026-04-26 22:35 | 42.94320 | -87.89695 | 683 ft | 26 kts | 186° |
| 2026-04-26 22:35 | 42.94156 | -87.89755 | 683 ft | 24 kts | 225° |
| 2026-04-26 22:35 | 42.94108 | -87.89880 | 683 ft | 12 kts | 348° |
| 2026-04-26 22:36 | 42.94212 | -87.89902 | 683 ft | 16 kts | 335° |
| 2026-04-26 22:36 | 42.94222 | -87.90009 | 682 ft | 17 kts | 252° |
| 2026-04-26 22:36 | 42.94175 | -87.90207 | 683 ft | 28 kts | 252° |
| 2026-04-26 22:36 | 42.94112 | -87.90462 | 681 ft | 28 kts | 250° |
| 2026-04-26 22:37 | 42.94089 | -87.90681 | 681 ft | 20 kts | 321° |
| 2026-04-26 22:37 | 42.94220 | -87.90738 | 683 ft | 20 kts | 345° |
| 2026-04-26 22:37 | 42.94253 | -87.90839 | 683 ft | 15 kts | 251° |
| 2026-04-26 22:37 | 42.94204 | -87.91033 | 683 ft | 26 kts | 252° |
| 2026-04-26 22:38 | 42.94146 | -87.91272 | 683 ft | 26 kts | 251° |
| 2026-04-26 22:38 | 42.94083 | -87.91534 | 681 ft | 32 kts | 251° |
| 2026-04-26 22:38 | 42.94028 | -87.91761 | 683 ft | 7 kts | 245° |
| 2026-04-26 22:38 | 42.93988 | -87.91791 | 683 ft | 8 kts | 181° |
| 2026-04-26 22:39 | 42.93923 | -87.91764 | 683 ft | 10 kts | 138° |
| 2026-04-26 22:39 | 42.93917 | -87.91736 | 683 ft | 3 kts | 70° |
| 2026-04-26 22:39 | 42.94028 | -87.91276 | 683 ft | 111 kts | 73° |
| 2026-04-26 22:39 | 42.94350 | -87.89928 | 1264 ft | 185 kts | 72° |
| 2026-04-26 22:40 | 42.94769 | -87.88205 | 2990 ft | 192 kts | 71° |
| 2026-04-26 22:40 | 42.95237 | -87.86326 | 4344 ft | 219 kts | 71° |
| 2026-04-26 22:40 | 42.95463 | -87.84253 | 5895 ft | 230 kts | 98° |
| 2026-04-26 22:40 | 42.94784 | -87.82250 | 7396 ft | 239 kts | 130° |
| 2026-04-26 22:41 | 42.93399 | -87.80991 | 8953 ft | 241 kts | 155° |
| 2026-04-26 22:41 | 42.91908 | -87.79957 | 10569 ft | 240 kts | 155° |
| 2026-04-26 22:41 | 42.90411 | -87.78941 | 12135 ft | 239 kts | 156° |
| 2026-04-26 22:41 | 42.88930 | -87.77913 | 13759 ft | 238 kts | 156° |
| 2026-04-26 22:42 | 42.87481 | -87.76906 | 15228 ft | 235 kts | 156° |
| 2026-04-26 22:42 | 42.86041 | -87.75896 | 16716 ft | 231 kts | 157° |
| 2026-04-26 22:42 | 42.84532 | -87.74858 | 17642 ft | 256 kts | 157° |
| 2026-04-26 22:42 | 42.82877 | -87.73711 | 17998 ft | 278 kts | 156° |
| 2026-04-26 22:43 | 42.81084 | -87.72462 | 18203 ft | 295 kts | 156° |
| 2026-04-26 22:43 | 42.79257 | -87.71184 | 18784 ft | 296 kts | 156° |
| 2026-04-26 22:43 | 42.77392 | -87.69895 | 19062 ft | 309 kts | 156° |
| 2026-04-26 22:43 | 42.75399 | -87.68518 | 19211 ft | 329 kts | 156° |
| 2026-04-26 22:44 | 42.73357 | -87.67097 | 19905 ft | 331 kts | 155° |
| 2026-04-26 22:44 | 42.71293 | -87.65668 | 20528 ft | 335 kts | 156° |
| 2026-04-26 22:44 | 42.69100 | -87.64599 | 21124 ft | 335 kts | 170° |
| 2026-04-26 22:44 | 42.66785 | -87.64150 | 21747 ft | 337 kts | 179° |
| 2026-04-26 22:45 | 42.64431 | -87.64022 | 22365 ft | 341 kts | 179° |
| 2026-04-26 22:45 | 42.62084 | -87.63827 | 22979 ft | 345 kts | 179° |
| 2026-04-26 22:45 | 42.59628 | -87.63641 | 23622 ft | 349 kts | 179° |
| 2026-04-26 22:45 | 42.57187 | -87.63459 | 24138 ft | 353 kts | 179° |
| 2026-04-26 22:46 | 42.54754 | -87.63290 | 24659 ft | 357 kts | 179° |
| 2026-04-26 22:46 | 42.52256 | -87.63100 | 25188 ft | 360 kts | 179° |
| 2026-04-26 22:46 | 42.49739 | -87.62899 | 25717 ft | 364 kts | 179° |
| 2026-04-26 22:46 | 42.47196 | -87.62683 | 26255 ft | 368 kts | 179° |
| 2026-04-26 22:47 | 42.44628 | -87.62480 | 26782 ft | 371 kts | 179° |
| 2026-04-26 22:47 | 42.42036 | -87.62462 | 27277 ft | 372 kts | 189° |
| 2026-04-26 22:47 | 42.39476 | -87.63039 | 27804 ft | 374 kts | 192° |
| 2026-04-26 22:47 | 42.36884 | -87.63561 | 28338 ft | 378 kts | 191° |
| 2026-04-26 22:48 | 42.36315 | -87.63675 | 28451 ft | 379 kts | 192° |
| 2026-04-26 22:48 | 42.33705 | -87.64109 | 28943 ft | 385 kts | 185° |
| 2026-04-26 22:48 | 42.31041 | -87.63876 | 29442 ft | 393 kts | 175° |
| 2026-04-26 22:48 | 42.28360 | -87.62979 | 29929 ft | 401 kts | 163° |
| 2026-04-26 22:49 | 42.25760 | -87.61563 | 30354 ft | 405 kts | 161° |
| 2026-04-26 22:49 | 42.23138 | -87.60122 | 30777 ft | 408 kts | 161° |
| 2026-04-26 22:49 | 42.20503 | -87.58653 | 31199 ft | 411 kts | 161° |
| 2026-04-26 22:49 | 42.17847 | -87.57192 | 31602 ft | 413 kts | 161° |
| 2026-04-26 22:50 | 42.15171 | -87.55720 | 32010 ft | 416 kts | 161° |
| 2026-04-26 22:50 | 42.12483 | -87.54246 | 32392 ft | 419 kts | 161° |
| 2026-04-26 22:50 | 42.09780 | -87.52754 | 32768 ft | 421 kts | 161° |
| 2026-04-26 22:50 | 42.07053 | -87.51259 | 33121 ft | 424 kts | 161° |
| 2026-04-26 22:51 | 42.04313 | -87.49754 | 33473 ft | 426 kts | 162° |
| 2026-04-26 22:51 | 42.01595 | -87.48268 | 33800 ft | 428 kts | 162° |
| 2026-04-26 22:51 | 41.98826 | -87.46749 | 34119 ft | 431 kts | 162° |
| 2026-04-26 22:51 | 41.96030 | -87.45319 | 34361 ft | 432 kts | 164° |
| 2026-04-26 22:52 | 41.93190 | -87.43953 | 34626 ft | 434 kts | 164° |
| 2026-04-26 22:52 | 41.90354 | -87.42554 | 34873 ft | 436 kts | 163° |
| 2026-04-26 22:52 | 41.87495 | -87.41140 | 35112 ft | 437 kts | 163° |
| 2026-04-26 22:52 | 41.84634 | -87.39747 | 35335 ft | 439 kts | 164° |
| 2026-04-26 22:53 | 41.81766 | -87.38354 | 35546 ft | 441 kts | 164° |
| 2026-04-26 22:53 | 41.78859 | -87.36935 | 35765 ft | 442 kts | 163° |
| 2026-04-26 22:53 | 41.75969 | -87.35523 | 35969 ft | 444 kts | 163° |
| 2026-04-26 22:53 | 41.73059 | -87.34107 | 36165 ft | 445 kts | 163° |
| 2026-04-26 22:54 | 41.70176 | -87.32707 | 36347 ft | 447 kts | 163° |
| 2026-04-26 22:54 | 41.67248 | -87.31284 | 36525 ft | 448 kts | 163° |
| 2026-04-26 22:54 | 41.64329 | -87.29868 | 36711 ft | 449 kts | 163° |
| 2026-04-26 22:54 | 41.61362 | -87.28428 | 36863 ft | 451 kts | 163° |
| 2026-04-26 22:55 | 41.58408 | -87.26999 | 37020 ft | 452 kts | 163° |
| 2026-04-26 22:55 | 41.55456 | -87.25569 | 37175 ft | 453 kts | 163° |
| 2026-04-26 22:55 | 41.52477 | -87.24131 | 37328 ft | 454 kts | 163° |
| 2026-04-26 22:55 | 41.49509 | -87.22696 | 37473 ft | 455 kts | 163° |
| 2026-04-26 22:56 | 41.46517 | -87.21253 | 37602 ft | 456 kts | 163° |
| 2026-04-26 22:56 | 41.43525 | -87.19810 | 37733 ft | 457 kts | 163° |
| 2026-04-26 22:56 | 41.40522 | -87.18366 | 37863 ft | 458 kts | 163° |
| 2026-04-26 22:56 | 41.37520 | -87.16919 | 37980 ft | 459 kts | 163° |
| 2026-04-26 22:57 | 41.34514 | -87.15476 | 38079 ft | 460 kts | 163° |
| 2026-04-26 22:57 | 41.31495 | -87.14025 | 38194 ft | 461 kts | 163° |
| 2026-04-26 22:57 | 41.28518 | -87.12598 | 38313 ft | 461 kts | 163° |
| 2026-04-26 22:58 | 41.22460 | -87.09696 | 38501 ft | 463 kts | 163° |
| 2026-04-26 22:58 | 41.16381 | -87.06790 | 38695 ft | 464 kts | 163° |
| 2026-04-26 22:59 | 41.10284 | -87.03881 | 38820 ft | 466 kts | 163° |
| 2026-04-26 22:59 | 41.04166 | -87.00969 | 38940 ft | 467 kts | 163° |
| 2026-04-26 23:00 | 40.98085 | -86.98079 | 39047 ft | 468 kts | 163° |
| 2026-04-26 23:00 | 40.91944 | -86.95168 | 39061 ft | 471 kts | 163° |
| 2026-04-26 23:01 | 40.85753 | -86.92237 | 39060 ft | 473 kts | 163° |
| 2026-04-26 23:01 | 40.79546 | -86.89305 | 39059 ft | 475 kts | 163° |
| 2026-04-26 23:02 | 40.73315 | -86.86368 | 39055 ft | 476 kts | 163° |
| 2026-04-26 23:02 | 40.68133 | -86.83927 | 39072 ft | 475 kts | 163° |
| 2026-04-26 23:03 | 40.61906 | -86.81010 | 39058 ft | 476 kts | 163° |
| 2026-04-26 23:03 | 40.55629 | -86.78060 | 39058 ft | 477 kts | 163° |
| 2026-04-26 23:04 | 40.49373 | -86.75137 | 39058 ft | 478 kts | 163° |
| 2026-04-26 23:04 | 40.43153 | -86.72230 | 39047 ft | 478 kts | 163° |
| 2026-04-26 23:05 | 40.36851 | -86.69294 | 39046 ft | 479 kts | 163° |
| 2026-04-26 23:05 | 40.33764 | -86.67858 | 39043 ft | 464 kts | 164° |
| 2026-04-26 23:05 | 40.30765 | -86.66458 | 39043 ft | 450 kts | 164° |
| 2026-04-26 23:06 | 40.26231 | -86.64357 | 39046 ft | 431 kts | 164° |
| 2026-04-26 23:06 | 40.20684 | -86.61785 | 39043 ft | 414 kts | 165° |
| 2026-04-26 23:07 | 40.15377 | -86.59332 | 39040 ft | 401 kts | 165° |
| 2026-04-26 23:07 | 40.10187 | -86.56934 | 39041 ft | 391 kts | 165° |
| 2026-04-26 23:08 | 40.05097 | -86.54587 | 39036 ft | 384 kts | 165° |
| 2026-04-26 23:08 | 40.00093 | -86.52281 | 39042 ft | 378 kts | 165° |
| 2026-04-26 23:09 | 39.95155 | -86.50012 | 39038 ft | 374 kts | 165° |
| 2026-04-26 23:09 | 39.90276 | -86.47771 | 39040 ft | 371 kts | 165° |
| 2026-04-26 23:10 | 39.85423 | -86.45547 | 39042 ft | 368 kts | 166° |
| 2026-04-26 23:10 | 39.80606 | -86.43342 | 39044 ft | 366 kts | 166° |
| 2026-04-26 23:11 | 39.75836 | -86.41162 | 39037 ft | 364 kts | 166° |
| 2026-04-26 23:11 | 39.71059 | -86.38982 | 39034 ft | 363 kts | 166° |
| 2026-04-26 23:12 | 39.66304 | -86.36815 | 39034 ft | 362 kts | 166° |
| 2026-04-26 23:12 | 39.61561 | -86.34657 | 39038 ft | 361 kts | 166° |
| 2026-04-26 23:13 | 39.56814 | -86.32500 | 39032 ft | 361 kts | 166° |
| 2026-04-26 23:13 | 39.52111 | -86.30365 | 39033 ft | 360 kts | 166° |
| 2026-04-26 23:14 | 39.47384 | -86.28224 | 39040 ft | 360 kts | 166° |
| 2026-04-26 23:14 | 39.42650 | -86.26082 | 39037 ft | 360 kts | 166° |
| 2026-04-26 23:15 | 39.37924 | -86.23946 | 39035 ft | 360 kts | 166° |
| 2026-04-26 23:15 | 39.33197 | -86.21813 | 39039 ft | 360 kts | 166° |
| 2026-04-26 23:16 | 39.28460 | -86.19681 | 39040 ft | 360 kts | 166° |
| 2026-04-26 23:16 | 39.23729 | -86.17553 | 39039 ft | 360 kts | 166° |
| 2026-04-26 23:17 | 39.19029 | -86.15442 | 39040 ft | 360 kts | 166° |
| 2026-04-26 23:17 | 39.14294 | -86.13317 | 39044 ft | 360 kts | 166° |
| 2026-04-26 23:18 | 39.09559 | -86.11196 | 39039 ft | 361 kts | 166° |
| 2026-04-26 23:18 | 39.04807 | -86.09069 | 39040 ft | 361 kts | 166° |
| 2026-04-26 23:19 | 39.00083 | -86.06961 | 39034 ft | 361 kts | 166° |
| 2026-04-26 23:19 | 38.95329 | -86.04840 | 39030 ft | 362 kts | 166° |
| 2026-04-26 23:20 | 38.90565 | -86.02718 | 39024 ft | 363 kts | 166° |
| 2026-04-26 23:20 | 38.85790 | -86.00594 | 39022 ft | 363 kts | 166° |
| 2026-04-26 23:21 | 38.81009 | -85.98471 | 39020 ft | 364 kts | 166° |
| 2026-04-26 23:21 | 38.76214 | -85.96344 | 39023 ft | 364 kts | 166° |
| 2026-04-26 23:22 | 38.71446 | -85.94233 | 39024 ft | 365 kts | 166° |
| 2026-04-26 23:22 | 38.66636 | -85.92106 | 39020 ft | 365 kts | 167° |
| 2026-04-26 23:23 | 38.61827 | -85.89983 | 39019 ft | 366 kts | 167° |
| 2026-04-26 23:23 | 38.57019 | -85.87861 | 38947 ft | 365 kts | 167° |
| 2026-04-26 23:24 | 38.52196 | -85.85740 | 39011 ft | 368 kts | 167° |
| 2026-04-26 23:24 | 38.47358 | -85.83611 | 39011 ft | 372 kts | 167° |
| 2026-04-26 23:25 | 38.42438 | -85.81452 | 39011 ft | 375 kts | 167° |
| 2026-04-26 23:25 | 38.37457 | -85.79269 | 39015 ft | 382 kts | 167° |
| 2026-04-26 23:26 | 38.32386 | -85.77048 | 39018 ft | 389 kts | 167° |
| 2026-04-26 23:26 | 38.27218 | -85.74788 | 39048 ft | 395 kts | 167° |
| 2026-04-26 23:27 | 38.21977 | -85.72501 | 39045 ft | 401 kts | 167° |
| 2026-04-26 23:27 | 38.16694 | -85.70199 | 39044 ft | 405 kts | 166° |
| 2026-04-26 23:28 | 38.11337 | -85.67866 | 39048 ft | 409 kts | 166° |
| 2026-04-26 23:28 | 38.05940 | -85.65522 | 39041 ft | 411 kts | 166° |
| 2026-04-26 23:29 | 38.00528 | -85.63173 | 39042 ft | 412 kts | 166° |
| 2026-04-26 23:29 | 37.95100 | -85.60822 | 39030 ft | 412 kts | 166° |
| 2026-04-26 23:30 | 37.89654 | -85.58467 | 39026 ft | 413 kts | 166° |
| 2026-04-26 23:30 | 37.84249 | -85.56133 | 39023 ft | 413 kts | 166° |
| 2026-04-26 23:31 | 37.78795 | -85.53782 | 39024 ft | 414 kts | 166° |
| 2026-04-26 23:31 | 37.73331 | -85.51430 | 39022 ft | 414 kts | 166° |
| 2026-04-26 23:32 | 37.67899 | -85.49096 | 39025 ft | 414 kts | 166° |